createdAt,value
2019-05-29T00:01:56.395Z,3.70
2019-05-29T00:06:57.915Z,3.97
2019-05-29T00:11:59.297Z,3.83
2019-05-29T00:17:01.093Z,4.37
2019-05-29T00:22:02.960Z,4.27
2019-05-29T00:27:05.405Z,3.80
2019-05-29T00:32:07.323Z,4.23
2019-05-29T00:37:08.621Z,4.40
2019-05-29T00:42:11.087Z,4.30
2019-05-29T00:47:13.651Z,4.33
2019-05-29T00:52:16.632Z,4.87
2019-05-29T00:57:19.020Z,4.97
2019-05-29T01:02:20.756Z,4.93
2019-05-29T01:07:22.543Z,5.57
2019-05-29T01:12:24.471Z,6.00
2019-05-29T01:17:25.964Z,5.50
2019-05-29T01:22:27.463Z,5.10
2019-05-29T01:27:29.305Z,5.67
2019-05-29T01:32:31.046Z,5.90
2019-05-29T01:37:32.534Z,5.47
2019-05-29T01:42:34.051Z,6.03
2019-05-29T01:47:36.626Z,6.70
2019-05-29T01:52:38.303Z,5.83
2019-05-29T01:57:39.834Z,5.33
2019-05-29T02:02:41.351Z,5.40
2019-05-29T02:07:43.028Z,5.43
2019-05-29T02:12:44.567Z,5.57
2019-05-29T02:17:45.947Z,5.50
2019-05-29T02:22:47.467Z,5.93
2019-05-29T02:27:49.209Z,4.57
2019-05-29T02:32:50.698Z,5.03
2019-05-29T02:37:52.236Z,5.13
2019-05-29T02:42:54.376Z,5.70
2019-05-29T02:47:55.894Z,4.93
2019-05-29T02:52:57.730Z,4.87
2019-05-29T02:57:59.263Z,5.40
2019-05-29T03:03:01.076Z,4.47
2019-05-29T03:08:02.648Z,5.17
2019-05-29T03:13:03.976Z,5.07
2019-05-29T03:18:05.524Z,4.70
2019-05-29T03:23:07.017Z,5.47
2019-05-29T03:28:08.461Z,5.27
2019-05-29T03:33:10.439Z,5.27
2019-05-29T03:38:12.397Z,5.07
2019-05-29T03:43:13.913Z,5.20
2019-05-29T03:48:15.315Z,6.67
2019-05-29T03:53:17.017Z,5.47
2019-05-29T03:58:18.889Z,5.53
2019-05-29T04:03:20.455Z,5.57
2019-05-29T04:08:22.081Z,5.87
2019-05-29T04:13:23.616Z,5.23
2019-05-29T04:18:27.482Z,6.17
2019-05-29T04:23:34.194Z,6.30
2019-05-29T04:28:38.896Z,6.77
2019-05-29T04:33:40.147Z,8.20
2019-05-29T04:38:42.060Z,7.17
2019-05-29T04:43:43.815Z,7.50
2019-05-29T04:48:45.477Z,8.50
2019-05-29T04:53:47.077Z,7.70
2019-05-29T04:58:49.163Z,7.67
2019-05-29T05:03:50.677Z,6.70
2019-05-29T05:08:52.570Z,7.93
2019-05-29T05:13:53.989Z,8.93
2019-05-29T05:18:55.685Z,8.70
2019-05-29T05:23:57.193Z,7.07
2019-05-29T05:28:58.769Z,7.27
2019-05-29T05:34:00.392Z,7.00
2019-05-29T05:39:02.251Z,6.57
2019-05-29T05:44:04.116Z,6.00
2019-05-29T05:49:05.668Z,5.30
2019-05-29T05:54:07.215Z,5.80
2019-05-29T05:59:09.056Z,5.80
2019-05-29T06:04:10.925Z,5.37
2019-05-29T06:09:12.863Z,5.13
2019-05-29T06:14:14.799Z,4.00
2019-05-29T06:19:16.537Z,4.40
2019-05-29T06:24:22.544Z,4.20
2019-05-29T06:29:24.154Z,3.80
2019-05-29T06:34:25.641Z,4.13
2019-05-29T06:39:27.254Z,3.67
2019-05-29T06:44:29.532Z,4.13
2019-05-29T06:49:31.602Z,4.30
2019-05-29T06:54:33.146Z,4.53
2019-05-29T06:59:36.084Z,4.87
2019-05-29T07:04:38.357Z,5.50
2019-05-29T07:09:41.054Z,4.27
2019-05-29T07:14:42.544Z,4.53
2019-05-29T07:19:54.158Z,4.70
2019-05-29T07:24:47.505Z,4.80
2019-05-29T07:29:49.074Z,4.40
2019-05-29T07:35:02.781Z,5.30
2019-05-29T07:39:54.442Z,4.80
2019-05-29T07:44:56.922Z,3.93
2019-05-29T07:49:58.835Z,3.47
2019-05-29T07:55:00.316Z,3.10
2019-05-29T08:00:01.898Z,4.60
2019-05-29T08:05:04.106Z,2.93
2019-05-29T08:10:05.761Z,2.40
2019-05-29T08:15:07.321Z,2.10
2019-05-29T08:20:09.261Z,2.00
2019-05-29T08:25:10.789Z,2.37
2019-05-29T08:30:12.712Z,2.60
2019-05-29T08:35:14.435Z,2.10
2019-05-29T08:40:15.951Z,2.20
2019-05-29T08:45:17.481Z,2.30
2019-05-29T08:50:19.468Z,2.05
2019-05-29T08:55:21.578Z,1.87
2019-05-29T09:00:23.459Z,2.22
2019-05-29T09:05:25.131Z,2.05
2019-05-29T09:10:26.553Z,2.02
2019-05-29T09:15:28.454Z,2.33
2019-05-29T09:20:50.223Z,2.35
2019-05-29T09:25:33.897Z,2.50
2019-05-29T09:30:35.356Z,2.20
2019-05-29T09:35:36.883Z,2.10
2019-05-29T09:40:38.438Z,2.70
2019-05-29T09:45:40.307Z,2.30
2019-05-29T09:50:50.147Z,2.00
2019-05-29T09:55:45.880Z,2.60
2019-05-29T10:00:47.388Z,2.83
2019-05-29T10:05:48.925Z,2.47
2019-05-29T10:10:50.499Z,2.77
2019-05-29T10:15:51.974Z,2.70
2019-05-29T10:20:54.762Z,2.62
2019-05-29T10:25:58.825Z,3.17
2019-05-29T10:31:03.733Z,2.87
2019-05-29T10:36:04.659Z,3.15
2019-05-29T10:41:07.457Z,3.22
2019-05-29T10:46:09.540Z,3.05
2019-05-29T10:51:11.044Z,3.65
2019-05-29T10:56:12.654Z,4.03
2019-05-29T11:01:15.261Z,4.35
2019-05-29T11:06:16.800Z,5.42
2019-05-29T11:11:18.413Z,4.40
2019-05-29T11:16:19.960Z,5.08
2019-05-29T11:21:21.498Z,4.37
2019-05-29T11:26:23.480Z,4.67
2019-05-29T11:31:24.897Z,4.17
2019-05-29T11:36:26.337Z,3.70
2019-05-29T11:41:27.764Z,3.80
2019-05-29T11:46:29.608Z,3.50
2019-05-29T11:51:31.574Z,3.62
2019-05-29T11:56:32.955Z,3.92
2019-05-29T12:01:48.958Z,3.58
2019-05-29T12:06:38.121Z,3.40
2019-05-29T12:11:39.648Z,3.40
2019-05-29T12:16:41.178Z,3.25
2019-05-29T12:21:43.043Z,3.75
2019-05-29T12:26:45.020Z,3.60
2019-05-29T12:31:46.514Z,4.08
2019-05-29T12:36:48.164Z,3.67
2019-05-29T12:41:49.748Z,3.35
2019-05-29T12:46:53.618Z,3.45
2019-05-29T12:51:55.447Z,3.60
2019-05-29T12:57:00.658Z,3.42
2019-05-29T13:02:02.776Z,3.60
2019-05-29T13:07:04.788Z,3.95
2019-05-29T13:12:06.349Z,4.00
2019-05-29T13:17:07.929Z,4.22
2019-05-29T13:22:09.674Z,4.72
2019-05-29T13:27:11.225Z,4.80
2019-05-29T13:32:13.079Z,4.65
2019-05-29T13:37:14.579Z,4.60
2019-05-29T13:42:16.340Z,5.25
2019-05-29T13:47:18.209Z,4.35
2019-05-29T13:52:20.180Z,4.62
2019-05-29T13:57:21.780Z,4.78
2019-05-29T14:02:23.414Z,4.30
2019-05-29T14:07:24.932Z,4.37
2019-05-29T14:12:26.811Z,5.00
2019-05-29T14:17:28.422Z,5.03
2019-05-29T14:22:29.964Z,5.03
2019-05-29T14:27:32.662Z,5.60
2019-05-29T14:32:34.471Z,5.40
2019-05-29T14:37:36.322Z,5.50
2019-05-29T14:42:38.161Z,5.40
2019-05-29T14:47:39.865Z,5.90
2019-05-29T14:52:41.739Z,5.75
2019-05-29T14:57:43.566Z,6.08
2019-05-29T15:02:45.078Z,5.50
2019-05-29T15:07:46.627Z,6.28
2019-05-29T15:12:48.133Z,5.70
2019-05-29T15:17:50.089Z,5.30
2019-05-29T15:22:52.011Z,5.58
2019-05-29T15:27:53.565Z,5.90
2019-05-29T15:32:55.443Z,5.28
2019-05-29T15:37:57.697Z,6.22
2019-05-29T15:42:59.258Z,5.60
2019-05-29T15:48:00.743Z,5.62
2019-05-29T15:53:02.336Z,6.17
2019-05-29T15:58:03.893Z,6.55
2019-05-29T16:03:05.788Z,5.78
2019-05-29T16:08:07.949Z,7.20
2019-05-29T16:13:11.017Z,7.17
2019-05-29T16:18:26.206Z,6.62
2019-05-29T16:23:30.737Z,6.80
2019-05-29T16:28:19.838Z,7.20
2019-05-29T16:33:21.579Z,7.90
2019-05-29T16:38:23.415Z,7.58
2019-05-29T16:43:24.881Z,7.12
2019-05-29T16:48:26.381Z,7.97
2019-05-29T16:53:28.288Z,8.10
2019-05-29T16:58:29.891Z,7.00
2019-05-29T17:03:31.434Z,8.18
2019-05-29T17:08:32.973Z,7.55
2019-05-29T17:13:34.802Z,8.08
2019-05-29T17:18:36.275Z,8.20
2019-05-29T17:23:38.622Z,7.10
2019-05-29T17:28:40.982Z,7.58
2019-05-29T17:33:42.856Z,8.40
2019-05-29T17:38:44.437Z,8.50
2019-05-29T17:43:46.004Z,8.25
2019-05-29T17:48:48.085Z,9.03
2019-05-29T17:53:50.356Z,8.45
2019-05-29T17:58:51.962Z,9.53
2019-05-29T18:03:53.467Z,9.35
2019-05-29T18:08:55.064Z,10.68
2019-05-29T18:13:56.548Z,11.00
2019-05-29T18:18:57.922Z,11.18
2019-05-29T18:24:00.473Z,11.45
2019-05-29T18:29:01.822Z,10.63
2019-05-29T18:34:03.086Z,10.60
2019-05-29T18:39:06.197Z,11.65
2019-05-29T18:44:07.561Z,10.05
2019-05-29T18:49:09.283Z,9.58
2019-05-29T18:54:11.940Z,12.50
2019-05-29T18:59:16.067Z,12.30
2019-05-29T19:04:18.933Z,12.23
2019-05-29T19:09:21.683Z,10.68
2019-05-29T19:14:24.013Z,10.80
2019-05-29T19:19:26.170Z,10.13
2019-05-29T19:24:28.585Z,8.83
2019-05-29T19:29:31.219Z,8.10
2019-05-29T19:34:33.689Z,9.35
2019-05-29T19:39:35.277Z,8.00
2019-05-29T19:44:36.815Z,8.53
2019-05-29T19:49:38.452Z,9.20
2019-05-29T19:54:40.109Z,9.63
2019-05-29T19:59:41.634Z,8.83
2019-05-29T20:04:43.287Z,9.10
2019-05-29T20:09:45.231Z,6.60
2019-05-29T20:14:46.968Z,4.92
2019-05-29T20:19:48.609Z,4.33
2019-05-29T20:24:50.208Z,4.22
2019-05-29T20:29:51.782Z,3.92
2019-05-29T20:34:53.276Z,3.62
2019-05-29T20:39:54.989Z,3.70
2019-05-29T20:44:56.676Z,4.00
2019-05-29T20:49:58.195Z,3.60
2019-05-29T20:54:59.680Z,3.50
2019-05-29T21:00:03.568Z,4.15
2019-05-29T21:05:05.241Z,3.47
2019-05-29T21:10:06.788Z,3.02
2019-05-29T21:15:08.760Z,2.85
2019-05-29T21:20:10.677Z,3.00
2019-05-29T21:25:17.134Z,3.08
2019-05-29T21:30:15.658Z,3.40
2019-05-29T21:35:17.245Z,3.85
2019-05-29T21:40:18.748Z,3.10
2019-05-29T21:45:20.674Z,3.40
2019-05-29T21:50:22.177Z,3.40
2019-05-29T21:55:24.111Z,3.10
2019-05-29T22:00:25.634Z,3.95
2019-05-29T22:05:27.179Z,3.60
2019-05-29T22:10:28.694Z,3.75
2019-05-29T22:15:30.183Z,5.40
2019-05-29T22:20:31.494Z,6.33
2019-05-29T22:25:34.505Z,6.28
2019-05-29T22:30:36.484Z,6.80
2019-05-29T22:35:38.006Z,6.20
2019-05-29T22:40:39.531Z,6.22
2019-05-29T22:45:41.084Z,6.40
2019-05-29T22:50:42.568Z,5.80
2019-05-29T22:55:44.085Z,5.33
2019-05-29T23:00:45.588Z,4.62
2019-05-29T23:05:47.157Z,4.80
2019-05-29T23:10:48.673Z,5.12
2019-05-29T23:15:50.282Z,6.08
2019-05-29T23:20:52.371Z,5.47
2019-05-29T23:25:54.527Z,6.93
2019-05-29T23:30:56.684Z,7.50
2019-05-29T23:35:59.087Z,7.05
2019-05-29T23:41:01.489Z,8.53
2019-05-29T23:46:04.023Z,8.13
2019-05-29T23:51:05.617Z,9.08
2019-05-29T23:56:06.883Z,9.45
